createdAt,value
2019-06-08T00:00:00.190Z,100788.19
2019-06-08T00:02:32.430Z,100784.19
2019-06-08T00:05:07.092Z,100781.22
2019-06-08T00:07:40.342Z,100778.24
2019-06-08T00:10:12.937Z,100777.63
2019-06-08T00:12:45.222Z,100774.73
2019-06-08T00:15:18.627Z,100773.69
2019-06-08T00:17:51.099Z,100781.22
2019-06-08T00:20:23.798Z,100776.98
2019-06-08T00:22:56.187Z,100781.69
2019-06-08T00:25:28.566Z,100781.42
2019-06-08T00:28:01.464Z,100774.44
2019-06-08T00:30:35.258Z,100778.88
2019-06-08T00:33:07.948Z,100777.93
2019-06-08T00:35:40.232Z,100776.20
2019-06-08T00:38:12.579Z,100774.14
2019-06-08T00:40:45.639Z,100769.78
2019-06-08T00:43:19.063Z,100774.30
2019-06-08T00:45:51.738Z,100764.94
2019-06-08T00:48:24.829Z,100770.97
2019-06-08T00:50:58.462Z,100770.36
2019-06-08T00:53:30.773Z,100770.25
2019-06-08T00:56:03.122Z,100772.36
2019-06-08T00:58:36.056Z,100769.64
2019-06-08T01:01:08.818Z,100778.70
2019-06-08T01:03:41.372Z,100786.42
2019-06-08T01:06:14.660Z,100786.80
2019-06-08T01:08:47.107Z,100789.55
2019-06-08T01:11:20.814Z,100784.95
2019-06-08T01:13:54.622Z,100787.16
2019-06-08T01:16:27.264Z,100789.30
2019-06-08T01:18:59.575Z,100788.38
2019-06-08T01:21:32.049Z,100787.98
2019-06-08T01:24:04.686Z,100790.92
2019-06-08T01:26:37.157Z,100788.24
2019-06-08T01:29:09.631Z,100786.91
2019-06-08T01:31:41.863Z,100790.78
2019-06-08T01:34:14.175Z,100798.32
2019-06-08T01:36:46.480Z,100800.30
2019-06-08T01:39:18.882Z,100799.31
2019-06-08T01:41:51.417Z,100796.30
2019-06-08T01:44:25.679Z,100794.14
2019-06-08T01:46:58.229Z,100791.26
2019-06-08T01:49:30.716Z,100792.73
2019-06-08T01:52:03.183Z,100795.69
2019-06-08T01:54:35.457Z,100795.85
2019-06-08T01:57:08.839Z,100793.95
2019-06-08T01:59:41.200Z,100801.86
2019-06-08T02:02:14.858Z,100799.02
2019-06-08T02:04:47.387Z,100801.41
2019-06-08T02:07:20.005Z,100799.97
2019-06-08T02:09:52.613Z,100802.61
2019-06-08T02:12:25.134Z,100801.00
2019-06-08T02:14:57.673Z,100805.66
2019-06-08T02:17:31.291Z,100805.25
2019-06-08T02:20:05.517Z,100804.30
2019-06-08T02:22:39.290Z,100804.64
2019-06-08T02:25:13.815Z,100802.01
2019-06-08T02:27:46.275Z,100806.27
2019-06-08T02:30:19.666Z,100794.17
2019-06-08T02:32:52.093Z,100792.61
2019-06-08T02:35:24.433Z,100784.94
2019-06-08T02:37:56.781Z,100786.13
2019-06-08T02:40:30.294Z,100796.48
2019-06-08T02:43:03.523Z,100790.52
2019-06-08T02:45:37.058Z,100786.55
2019-06-08T02:48:10.447Z,100779.27
2019-06-08T02:50:57.346Z,100774.05
2019-06-08T02:53:32.159Z,100775.23
2019-06-08T02:56:05.450Z,100779.63
2019-06-08T02:58:40.762Z,100774.60
2019-06-08T03:01:15.171Z,100770.77
2019-06-08T03:03:49.651Z,100777.25
2019-06-08T03:06:22.093Z,100775.78
2019-06-08T03:08:57.605Z,100775.93
2019-06-08T03:11:32.551Z,100775.80
2019-06-08T03:14:05.185Z,100772.56
2019-06-08T03:16:39.001Z,100768.05
2019-06-08T03:19:21.610Z,100761.28
2019-06-08T03:21:46.034Z,100758.09
2019-06-08T03:24:20.029Z,100753.28
2019-06-08T03:26:55.314Z,100754.09
2019-06-08T03:29:27.756Z,100758.28
2019-06-08T03:32:00.378Z,100756.78
2019-06-08T03:34:35.561Z,100759.66
2019-06-08T03:37:07.614Z,100750.69
2019-06-08T03:39:41.306Z,100760.52
2019-06-08T03:42:14.290Z,100765.38
2019-06-08T03:44:47.402Z,100761.89
2019-06-08T03:47:19.927Z,100760.11
2019-06-08T03:49:57.381Z,100768.80
2019-06-08T03:52:26.651Z,100762.11
2019-06-08T03:54:59.120Z,100754.64
2019-06-08T03:57:31.717Z,100754.99
2019-06-08T04:00:12.918Z,100759.96
2019-06-08T04:02:44.802Z,100751.84
2019-06-08T04:05:17.086Z,100751.22
2019-06-08T04:07:50.497Z,100751.95
2019-06-08T04:10:23.208Z,100759.75
2019-06-08T04:12:55.636Z,100766.56
2019-06-08T04:15:28.088Z,100763.30
2019-06-08T04:18:01.831Z,100762.34
2019-06-08T04:20:37.961Z,100761.59
2019-06-08T04:23:10.976Z,100762.95
2019-06-08T04:25:45.013Z,100766.22
2019-06-08T04:28:17.691Z,100773.09
2019-06-08T04:30:50.218Z,100776.58
2019-06-08T04:33:23.234Z,100785.36
2019-06-08T04:35:58.659Z,100779.42
2019-06-08T04:38:30.966Z,100783.72
2019-06-08T04:41:03.510Z,100790.05
2019-06-08T04:43:35.834Z,100778.37
2019-06-08T04:46:08.179Z,100779.61
2019-06-08T04:48:40.690Z,100774.25
2019-06-08T04:51:13.975Z,100773.34
2019-06-08T04:53:47.182Z,100771.91
2019-06-08T04:56:33.554Z,100778.66
2019-06-08T04:59:06.735Z,100776.64
2019-06-08T05:01:40.893Z,100784.61
2019-06-08T05:04:13.864Z,100788.55
2019-06-08T05:06:47.227Z,100790.73
2019-06-08T05:09:20.779Z,100799.51
2019-06-08T05:11:57.855Z,100803.91
2019-06-08T05:14:31.063Z,100798.58
2019-06-08T05:17:05.352Z,100801.33
2019-06-08T05:19:39.255Z,100796.99
2019-06-08T05:22:12.569Z,100804.77
2019-06-08T05:24:45.611Z,100814.33
2019-06-08T05:27:18.247Z,100806.61
2019-06-08T05:29:50.704Z,100812.86
2019-06-08T05:32:23.293Z,100813.44
2019-06-08T05:34:55.844Z,100815.25
2019-06-08T05:37:33.090Z,100813.64
2019-06-08T05:40:07.234Z,100812.84
2019-06-08T05:42:42.126Z,100818.08
2019-06-08T05:45:14.329Z,100813.20
2019-06-08T05:47:47.930Z,100809.86
2019-06-08T05:50:21.263Z,100827.73
2019-06-08T05:52:53.678Z,100817.64
2019-06-08T05:55:26.253Z,100822.73
2019-06-08T05:57:58.718Z,100812.39
2019-06-08T06:00:31.040Z,100818.17
2019-06-08T06:03:03.652Z,100816.64
2019-06-08T06:05:36.081Z,100806.98
2019-06-08T06:08:18.282Z,100811.42
2019-06-08T06:10:44.778Z,100809.05
2019-06-08T06:13:18.176Z,100812.96
2019-06-08T06:15:51.694Z,100803.66
2019-06-08T06:18:24.408Z,100805.20
2019-06-08T06:21:10.368Z,100802.84
2019-06-08T06:23:31.465Z,100801.94
2019-06-08T06:26:03.826Z,100809.09
2019-06-08T06:28:36.193Z,100807.08
2019-06-08T06:31:08.620Z,100810.23
2019-06-08T06:33:41.978Z,100807.15
2019-06-08T06:36:15.017Z,100838.52
2019-06-08T06:38:48.269Z,100807.69
2019-06-08T06:41:20.891Z,100799.52
2019-06-08T06:43:53.184Z,100801.05
2019-06-08T06:46:25.646Z,100802.07
2019-06-08T06:48:58.069Z,100807.86
2019-06-08T06:51:30.494Z,100810.14
2019-06-08T06:54:03.229Z,100805.44
2019-06-08T06:56:35.608Z,100803.30
2019-06-08T06:59:07.973Z,100796.34
2019-06-08T07:01:40.419Z,100806.17
2019-06-08T07:04:14.969Z,100796.74
2019-06-08T07:06:48.118Z,100800.89
2019-06-08T07:09:21.465Z,100799.83
2019-06-08T07:11:56.181Z,100798.02
2019-06-08T07:14:27.947Z,100795.28
2019-06-08T07:17:01.818Z,100795.58
2019-06-08T07:19:34.719Z,100797.54
2019-06-08T07:22:07.262Z,100796.06
2019-06-08T07:24:39.830Z,100781.39
2019-06-08T07:27:12.169Z,100781.05
2019-06-08T07:29:47.100Z,100784.50
2019-06-08T07:32:20.218Z,100782.41
2019-06-08T07:34:53.147Z,100783.05
2019-06-08T07:37:28.361Z,100767.03
2019-06-08T07:40:00.711Z,100757.70
2019-06-08T07:42:33.038Z,100757.45
2019-06-08T07:45:07.680Z,100753.90
2019-06-08T07:47:40.205Z,100761.17
2019-06-08T07:50:15.026Z,100757.58
2019-06-08T07:52:49.506Z,100777.55
2019-06-08T07:55:22.531Z,100777.86
2019-06-08T07:57:56.203Z,100770.48
2019-06-08T08:00:28.736Z,100763.53
2019-06-08T08:03:01.115Z,100765.55
2019-06-08T08:05:34.471Z,100766.50
2019-06-08T08:08:06.838Z,100780.52
2019-06-08T08:10:39.204Z,100763.89
2019-06-08T08:13:13.115Z,100762.54
2019-06-08T08:15:45.651Z,100756.85
2019-06-08T08:18:17.983Z,100748.39
2019-06-08T08:20:51.075Z,100758.62
2019-06-08T08:23:23.515Z,100747.88
2019-06-08T08:25:57.923Z,100756.48
2019-06-08T08:28:30.073Z,100744.48
2019-06-08T08:31:03.826Z,100745.73
2019-06-08T08:33:37.970Z,100743.94
2019-06-08T08:36:10.708Z,100743.41
2019-06-08T08:38:43.292Z,100744.28
2019-06-08T08:41:18.189Z,100737.57
2019-06-08T08:43:51.320Z,100744.97
2019-06-08T08:46:23.876Z,100742.34
2019-06-08T08:49:05.957Z,100747.88
2019-06-08T08:51:30.910Z,100738.58
2019-06-08T08:54:05.480Z,100738.36
2019-06-08T08:56:38.607Z,100746.64
2019-06-08T08:59:12.273Z,100734.52
2019-06-08T09:01:48.291Z,100732.94
2019-06-08T09:04:20.943Z,100733.89
2019-06-08T09:06:53.566Z,100737.55
2019-06-08T09:09:28.848Z,100724.73
2019-06-08T09:12:04.165Z,100722.97
2019-06-08T09:14:34.826Z,100722.06
2019-06-08T09:17:08.933Z,100721.19
2019-06-08T09:19:41.368Z,100738.39
2019-06-08T09:22:14.233Z,100705.05
2019-06-08T09:24:48.565Z,100712.81
2019-06-08T09:27:20.725Z,100722.03
2019-06-08T09:29:53.780Z,100717.03
2019-06-08T09:32:28.724Z,100703.64
2019-06-08T09:35:04.624Z,100688.81
2019-06-08T09:37:37.547Z,100701.00
2019-06-08T09:40:10.854Z,100701.41
2019-06-08T09:42:43.200Z,100694.56
2019-06-08T09:45:18.039Z,100683.66
2019-06-08T09:47:51.372Z,100674.14
2019-06-08T09:50:23.782Z,100681.33
2019-06-08T09:53:10.128Z,100680.33
2019-06-08T09:55:32.647Z,100675.78
2019-06-08T09:58:09.516Z,100671.64
2019-06-08T10:00:39.468Z,100675.93
2019-06-08T10:03:12.432Z,100673.20
2019-06-08T10:05:45.033Z,100687.95
2019-06-08T10:08:20.212Z,100685.17
2019-06-08T10:10:54.397Z,100677.20
2019-06-08T10:13:28.018Z,100700.55
2019-06-08T10:16:03.589Z,100707.48
2019-06-08T10:18:35.673Z,100699.86
2019-06-08T10:21:09.905Z,100707.09
2019-06-08T10:23:43.567Z,100694.20
2019-06-08T10:26:17.811Z,100703.94
2019-06-08T10:28:51.240Z,100699.36
2019-06-08T10:31:38.334Z,100700.77
2019-06-08T10:34:01.824Z,100701.28
2019-06-08T10:36:32.702Z,100721.12
2019-06-08T10:39:11.519Z,100717.22
2019-06-08T10:41:41.490Z,100706.58
2019-06-08T10:44:14.578Z,100716.69
2019-06-08T10:46:48.577Z,100731.19
2019-06-08T10:49:21.054Z,100727.68
2019-06-08T10:51:53.601Z,100729.56
2019-06-08T10:54:27.749Z,100725.24
2019-06-08T10:57:02.557Z,100720.48
2019-06-08T10:59:36.593Z,100727.63
2019-06-08T11:02:13.704Z,100743.18
2019-06-08T11:04:43.912Z,100740.81
2019-06-08T11:07:16.698Z,100730.30
2019-06-08T11:09:51.365Z,100739.38
2019-06-08T11:12:23.660Z,100736.31
2019-06-08T11:14:58.437Z,100722.02
2019-06-08T11:17:31.748Z,100711.37
2019-06-08T11:20:11.180Z,100703.20
2019-06-08T11:22:41.049Z,100694.83
2019-06-08T11:25:16.662Z,100701.25
2019-06-08T11:27:50.120Z,100697.14
2019-06-08T11:30:27.153Z,100697.56
2019-06-08T11:32:57.813Z,100691.58
2019-06-08T11:35:31.069Z,100684.02
2019-06-08T11:38:04.153Z,100687.05
2019-06-08T11:40:39.784Z,100682.12
2019-06-08T11:43:12.171Z,100684.80
2019-06-08T11:45:44.866Z,100682.86
2019-06-08T11:48:18.252Z,100674.63
2019-06-08T11:50:53.126Z,100682.00
2019-06-08T11:53:25.631Z,100677.55
2019-06-08T11:55:58.642Z,100675.62
2019-06-08T11:58:33.371Z,100673.67
2019-06-08T12:01:13.719Z,100677.39
2019-06-08T12:03:49.248Z,100675.33
2019-06-08T12:06:23.697Z,100670.28
2019-06-08T12:08:57.361Z,100664.06
2019-06-08T12:11:33.695Z,100657.88
2019-06-08T12:14:10.797Z,100655.77
2019-06-08T12:16:42.830Z,100650.20
2019-06-08T12:19:20.339Z,100659.42
2019-06-08T12:21:52.512Z,100654.86
2019-06-08T12:24:41.060Z,100650.94
2019-06-08T12:27:10.198Z,100647.31
2019-06-08T12:29:36.684Z,100648.77
2019-06-08T12:32:10.802Z,100640.44
2019-06-08T12:34:43.020Z,100633.68
2019-06-08T12:37:21.307Z,100634.70
2019-06-08T12:39:49.700Z,100631.42
2019-06-08T12:42:24.893Z,100626.09
2019-06-08T12:44:58.630Z,100619.22
2019-06-08T12:47:31.705Z,100619.82
2019-06-08T12:50:05.362Z,100612.39
2019-06-08T12:52:42.986Z,100595.63
2019-06-08T12:55:19.977Z,100593.91
2019-06-08T12:57:51.550Z,100588.48
2019-06-08T13:00:24.855Z,100591.90
2019-06-08T13:02:58.129Z,100591.94
2019-06-08T13:05:30.842Z,100585.37
2019-06-08T13:08:04.088Z,100583.86
2019-06-08T13:10:38.169Z,100583.60
2019-06-08T13:13:12.794Z,100578.58
2019-06-08T13:15:48.365Z,100576.94
2019-06-08T13:18:21.445Z,100585.98
2019-06-08T13:20:54.106Z,100582.60
2019-06-08T13:23:28.295Z,100587.89
2019-06-08T13:26:00.718Z,100583.07
2019-06-08T13:28:33.155Z,100589.94
2019-06-08T13:31:07.904Z,100590.26
2019-06-08T13:33:39.681Z,100590.19
2019-06-08T13:36:12.355Z,100591.59
2019-06-08T13:38:44.879Z,100587.73
2019-06-08T13:41:20.242Z,100583.91
2019-06-08T13:43:51.727Z,100587.34
2019-06-08T13:46:24.004Z,100583.02
2019-06-08T13:48:58.363Z,100573.53
2019-06-08T13:51:30.436Z,100571.95
2019-06-08T13:54:03.943Z,100575.05
2019-06-08T13:56:38.476Z,100568.86
2019-06-08T13:59:10.750Z,100564.56
2019-06-08T14:01:47.704Z,100576.05
2019-06-08T14:04:21.048Z,100566.08
2019-06-08T14:06:53.963Z,100577.98
2019-06-08T14:09:28.420Z,100570.75
2019-06-08T14:12:00.373Z,100567.35
2019-06-08T14:14:34.633Z,100561.84
2019-06-08T14:17:08.489Z,100563.46
2019-06-08T14:19:42.546Z,100558.13
2019-06-08T14:22:18.326Z,100552.33
2019-06-08T14:24:51.104Z,100559.57
2019-06-08T14:27:23.549Z,100558.64
2019-06-08T14:29:58.289Z,100566.88
2019-06-08T14:32:31.390Z,100564.53
2019-06-08T14:35:03.833Z,100573.60
2019-06-08T14:37:38.137Z,100576.84
2019-06-08T14:40:10.812Z,100581.30
2019-06-08T14:42:45.345Z,100589.98
2019-06-08T14:45:19.240Z,100585.01
2019-06-08T14:47:51.929Z,100584.01
2019-06-08T14:50:24.522Z,100586.30
2019-06-08T14:52:59.087Z,100590.69
2019-06-08T14:55:34.262Z,100595.50
2019-06-08T14:58:08.282Z,100596.73
2019-06-08T15:00:40.255Z,100596.09
2019-06-08T15:03:12.648Z,100595.95
2019-06-08T15:05:45.060Z,100601.52
2019-06-08T15:08:17.673Z,100603.28
2019-06-08T15:10:52.105Z,100602.87
2019-06-08T15:13:26.228Z,100608.53
2019-06-08T15:16:00.713Z,100610.78
2019-06-08T15:18:34.340Z,100619.35
2019-06-08T15:21:07.940Z,100622.45
2019-06-08T15:23:40.611Z,100621.88
2019-06-08T15:26:28.165Z,100625.65
2019-06-08T15:28:52.736Z,100636.16
2019-06-08T15:31:25.213Z,100639.73
2019-06-08T15:34:01.344Z,100649.88
2019-06-08T15:36:32.830Z,100663.42
2019-06-08T15:39:08.824Z,100656.58
2019-06-08T15:41:41.252Z,100666.63
2019-06-08T15:44:13.832Z,100661.45
2019-06-08T15:46:48.878Z,100673.02
2019-06-08T15:49:22.175Z,100664.92
2019-06-08T15:51:55.019Z,100665.97
2019-06-08T15:54:33.590Z,100665.44
2019-06-08T15:57:02.618Z,100662.81
2019-06-08T15:59:40.030Z,100666.77
2019-06-08T16:02:10.858Z,100670.13
2019-06-08T16:04:43.357Z,100671.02
2019-06-08T16:07:16.511Z,100663.93
2019-06-08T16:09:51.363Z,100661.64
2019-06-08T16:12:26.209Z,100657.83
2019-06-08T16:14:58.719Z,100651.38
2019-06-08T16:17:31.267Z,100659.25
2019-06-08T16:20:04.396Z,100664.61
2019-06-08T16:22:38.149Z,100673.52
2019-06-08T16:25:10.637Z,100680.34
2019-06-08T16:27:43.092Z,100686.57
2019-06-08T16:30:16.320Z,100682.94
2019-06-08T16:32:48.923Z,100689.45
2019-06-08T16:35:21.775Z,100696.53
2019-06-08T16:37:54.359Z,100690.08
2019-06-08T16:40:27.691Z,100699.00
2019-06-08T16:42:59.955Z,100705.56
2019-06-08T16:45:33.146Z,100710.10
2019-06-08T16:48:05.822Z,100700.59
2019-06-08T16:50:38.547Z,100702.12
2019-06-08T16:53:11.196Z,100697.95
2019-06-08T16:55:45.083Z,100687.27
2019-06-08T16:58:17.387Z,100699.11
2019-06-08T17:00:50.066Z,100693.86
2019-06-08T17:03:22.535Z,100698.03
2019-06-08T17:05:54.974Z,100696.11
2019-06-08T17:08:27.383Z,100704.36
2019-06-08T17:11:00.840Z,100708.03
2019-06-08T17:13:34.097Z,100704.36
2019-06-08T17:16:06.542Z,100712.77
2019-06-08T17:18:40.260Z,100711.14
2019-06-08T17:21:13.755Z,100709.70
2019-06-08T17:23:46.431Z,100709.23
2019-06-08T17:26:20.807Z,100710.84
2019-06-08T17:28:54.107Z,100703.83
2019-06-08T17:31:27.031Z,100705.13
2019-06-08T17:33:59.782Z,100707.71
2019-06-08T17:36:32.630Z,100700.84
2019-06-08T17:39:07.151Z,100702.42
2019-06-08T17:41:40.477Z,100699.59
2019-06-08T17:44:14.248Z,100701.97
2019-06-08T17:46:47.821Z,100703.34
2019-06-08T17:49:21.222Z,100711.72
2019-06-08T17:51:54.570Z,100711.28
2019-06-08T17:54:27.545Z,100712.92
2019-06-08T17:57:00.824Z,100705.73
2019-06-08T17:59:35.305Z,100709.83
2019-06-08T18:02:13.726Z,100713.90
2019-06-08T18:04:44.528Z,100714.91
2019-06-08T18:07:17.694Z,100717.58
2019-06-08T18:09:50.697Z,100718.56
2019-06-08T18:12:23.642Z,100719.75
2019-06-08T18:14:57.992Z,100715.37
2019-06-08T18:17:31.321Z,100714.39
2019-06-08T18:20:07.768Z,100720.59
2019-06-08T18:22:42.803Z,100734.02
2019-06-08T18:25:17.418Z,100735.50
2019-06-08T18:28:05.549Z,100741.73
2019-06-08T18:30:27.635Z,100751.14
2019-06-08T18:33:01.322Z,100754.44
2019-06-08T18:35:37.368Z,100760.11
2019-06-08T18:38:12.931Z,100761.05
2019-06-08T18:40:48.316Z,100758.41
2019-06-08T18:43:30.613Z,100757.77
2019-06-08T18:46:07.064Z,100762.83
2019-06-08T18:48:42.143Z,100771.89
2019-06-08T18:51:18.009Z,100772.90
2019-06-08T18:54:07.232Z,100771.55
2019-06-08T18:56:28.255Z,100776.25
2019-06-08T18:59:02.647Z,100772.20
2019-06-08T19:01:39.093Z,100766.09
2019-06-08T19:04:12.072Z,100765.02
2019-06-08T19:06:50.117Z,100771.69
2019-06-08T19:09:24.777Z,100774.33
2019-06-08T19:11:58.762Z,100769.63
2019-06-08T19:14:34.403Z,100766.61
2019-06-08T19:17:11.177Z,100771.31
2019-06-08T19:19:48.456Z,100773.66
2019-06-08T19:22:20.266Z,100772.36
2019-06-08T19:24:53.920Z,100771.35
2019-06-08T19:27:27.751Z,100772.02
2019-06-08T19:30:02.893Z,100761.41
2019-06-08T19:32:41.877Z,100769.63
2019-06-08T19:35:18.410Z,100766.41
2019-06-08T19:37:53.671Z,100774.95
2019-06-08T19:40:27.172Z,100778.48
2019-06-08T19:43:03.548Z,100796.42
2019-06-08T19:45:40.270Z,100811.57
2019-06-08T19:48:17.389Z,100802.23
2019-06-08T19:50:54.262Z,100808.83
2019-06-08T19:53:28.637Z,100798.95
2019-06-08T19:56:01.398Z,100810.28
2019-06-08T19:58:50.062Z,100804.26
2019-06-08T20:01:11.727Z,100804.08
2019-06-08T20:03:46.979Z,100805.59
2019-06-08T20:06:21.191Z,100819.55
2019-06-08T20:08:57.564Z,100820.00
2019-06-08T20:11:34.045Z,100828.64
2019-06-08T20:14:08.048Z,100817.31
2019-06-08T20:16:42.712Z,100823.87
2019-06-08T20:19:17.979Z,100828.90
2019-06-08T20:21:53.447Z,100832.74
2019-06-08T20:24:27.960Z,100825.86
2019-06-08T20:27:00.843Z,100829.14
2019-06-08T20:29:33.449Z,100833.09
2019-06-08T20:32:08.470Z,100829.91
2019-06-08T20:34:42.437Z,100832.23
2019-06-08T20:37:17.524Z,100822.78
2019-06-08T20:40:05.800Z,100822.01
2019-06-08T20:42:24.062Z,100819.33
2019-06-08T20:44:57.820Z,100818.51
2019-06-08T20:47:30.479Z,100813.48
2019-06-08T20:50:02.997Z,100808.45
2019-06-08T20:52:37.767Z,100812.48
2019-06-08T20:55:10.494Z,100814.98
2019-06-08T20:57:43.134Z,100811.97
2019-06-08T21:00:16.021Z,100813.58
2019-06-08T21:02:50.315Z,100820.39
2019-06-08T21:05:22.313Z,100810.75
2019-06-08T21:07:58.884Z,100807.39
2019-06-08T21:10:30.842Z,100809.23
2019-06-08T21:13:07.143Z,100801.84
2019-06-08T21:15:39.148Z,100805.81
2019-06-08T21:18:12.194Z,100801.95
2019-06-08T21:20:47.172Z,100801.89
2019-06-08T21:23:19.937Z,100803.39
2019-06-08T21:25:54.071Z,100801.97
2019-06-08T21:28:28.087Z,100808.24
2019-06-08T21:31:02.146Z,100812.33
2019-06-08T21:33:37.835Z,100816.91
2019-06-08T21:36:10.192Z,100820.21
2019-06-08T21:38:54.958Z,100823.66
2019-06-08T21:41:24.733Z,100825.75
2019-06-08T21:44:00.772Z,100823.41
2019-06-08T21:46:31.564Z,100832.63
2019-06-08T21:49:04.105Z,100833.63
2019-06-08T21:51:39.832Z,100836.52
2019-06-08T21:54:12.406Z,100830.55
2019-06-08T21:56:44.915Z,100824.91
2019-06-08T21:59:18.196Z,100823.48
2019-06-08T22:01:53.044Z,100827.25
2019-06-08T22:04:27.548Z,100823.55
2019-06-08T22:07:01.449Z,100820.34
2019-06-08T22:09:33.603Z,100823.11
2019-06-08T22:12:07.195Z,100823.97
2019-06-08T22:14:39.849Z,100825.55
2019-06-08T22:17:16.045Z,100827.33
2019-06-08T22:19:48.700Z,100823.46
2019-06-08T22:22:21.217Z,100827.05
2019-06-08T22:24:55.428Z,100826.20
2019-06-08T22:27:28.035Z,100827.89
2019-06-08T22:30:01.316Z,100825.25
2019-06-08T22:32:38.496Z,100822.88
2019-06-08T22:35:13.157Z,100825.06
2019-06-08T22:37:47.914Z,100830.72
2019-06-08T22:40:20.084Z,100831.97
2019-06-08T22:42:52.594Z,100832.12
2019-06-08T22:45:25.156Z,100845.16
2019-06-08T22:48:00.446Z,100840.39
2019-06-08T22:50:31.811Z,100836.25
2019-06-08T22:53:07.817Z,100837.94
2019-06-08T22:55:39.989Z,100835.71
2019-06-08T22:58:13.857Z,100832.48
2019-06-08T23:00:52.701Z,100824.25
2019-06-08T23:03:20.736Z,100820.83
2019-06-08T23:05:54.801Z,100820.39
2019-06-08T23:08:27.554Z,100826.09
2019-06-08T23:11:02.009Z,100827.74
2019-06-08T23:13:34.172Z,100827.44
2019-06-08T23:16:08.845Z,100825.09
2019-06-08T23:18:40.904Z,100835.53
2019-06-08T23:21:13.303Z,100836.44
2019-06-08T23:23:47.655Z,100834.00
2019-06-08T23:26:20.202Z,100840.70
2019-06-08T23:28:52.752Z,100842.20
2019-06-08T23:31:28.424Z,100837.71
2019-06-08T23:34:01.970Z,100844.56
2019-06-08T23:36:48.416Z,100841.15
2019-06-08T23:39:10.079Z,100851.11
2019-06-08T23:41:42.369Z,100857.70
2019-06-08T23:44:14.668Z,100867.33
2019-06-08T23:46:48.427Z,100871.70
2019-06-08T23:49:21.571Z,100868.86
2019-06-08T23:51:58.132Z,100864.75
2019-06-08T23:54:30.255Z,100861.23
2019-06-08T23:57:04.892Z,100862.46
2019-06-08T23:59:38.954Z,100853.30
